createdAt,value
2018-10-09T00:00:49.527Z,37.57
2018-10-09T00:03:17.624Z,39.40
2018-10-09T00:05:45.796Z,39.13
2018-10-09T00:08:13.967Z,37.80
2018-10-09T00:10:42.144Z,37.90
2018-10-09T00:13:10.311Z,35.23
2018-10-09T00:15:38.500Z,35.70
2018-10-09T00:18:06.677Z,36.47
2018-10-09T00:20:34.849Z,37.73
2018-10-09T00:23:03.017Z,35.17
2018-10-09T00:25:31.355Z,35.60
2018-10-09T00:27:59.563Z,35.07
2018-10-09T00:30:27.734Z,34.60
2018-10-09T00:32:56.439Z,38.43
2018-10-09T00:35:25.317Z,36.60
2018-10-09T00:37:53.488Z,34.63
2018-10-09T00:40:21.683Z,41.50
2018-10-09T00:42:49.849Z,34.30
2018-10-09T00:45:18.012Z,35.23
2018-10-09T00:47:46.205Z,39.23
2018-10-09T00:50:14.464Z,38.10
2018-10-09T00:52:42.737Z,36.40
2018-10-09T00:55:10.920Z,38.47
2018-10-09T00:57:39.089Z,35.23
2018-10-09T01:00:07.828Z,34.20
2018-10-09T01:02:36.020Z,47.63
2018-10-09T01:05:04.192Z,47.80
2018-10-09T01:07:32.412Z,48.60
2018-10-09T01:10:00.599Z,42.60
2018-10-09T01:12:28.872Z,41.07
2018-10-09T01:14:57.072Z,41.90
2018-10-09T01:17:25.302Z,43.35
2018-10-09T01:19:53.533Z,47.80
2018-10-09T01:22:21.798Z,41.10
2018-10-09T01:24:50.031Z,41.73
2018-10-09T01:27:18.769Z,41.30
2018-10-09T01:29:47.019Z,42.33
2018-10-09T01:32:15.429Z,42.70
2018-10-09T01:34:43.712Z,53.77
2018-10-09T01:37:12.045Z,45.97
2018-10-09T01:39:40.531Z,46.07
2018-10-09T01:42:08.777Z,43.33
2018-10-09T01:44:36.933Z,43.90
2018-10-09T01:47:05.161Z,42.77
2018-10-09T01:49:33.421Z,42.77
2018-10-09T01:52:01.893Z,45.30
2018-10-09T01:54:30.105Z,42.90
2018-10-09T01:56:58.273Z,44.30
2018-10-09T01:59:26.474Z,54.70
2018-10-09T02:01:54.704Z,50.97
2018-10-09T02:04:22.868Z,48.37
2018-10-09T02:06:51.149Z,53.20
2018-10-09T02:09:19.578Z,63.17
2018-10-09T02:11:47.789Z,63.73
2018-10-09T02:14:15.996Z,51.10
2018-10-09T02:16:44.627Z,64.20
2018-10-09T02:19:12.828Z,54.63
2018-10-09T02:21:41.105Z,71.00
2018-10-09T02:24:09.400Z,47.67
2018-10-09T02:26:37.616Z,58.53
2018-10-09T02:29:06.032Z,45.43
2018-10-09T02:31:34.226Z,51.77
2018-10-09T02:34:02.483Z,52.83
2018-10-09T02:36:30.748Z,47.60
2018-10-09T02:38:58.944Z,56.87
2018-10-09T02:41:30.312Z,63.00
2018-10-09T02:43:58.504Z,64.80
2018-10-09T02:46:26.695Z,43.83
2018-10-09T02:48:56.183Z,41.07
2018-10-09T02:51:24.357Z,41.80
2018-10-09T02:53:52.601Z,40.43
2018-10-09T02:56:20.772Z,41.00
2018-10-09T02:58:48.958Z,37.43
2018-10-09T03:01:17.225Z,39.40
2018-10-09T03:03:45.489Z,38.83
2018-10-09T03:06:13.663Z,39.43
2018-10-09T03:08:41.920Z,40.87
2018-10-09T03:11:10.023Z,44.73
2018-10-09T03:13:38.300Z,43.07
2018-10-09T03:16:06.556Z,43.83
2018-10-09T03:18:34.721Z,40.83
2018-10-09T03:21:02.922Z,39.43
2018-10-09T03:23:31.236Z,39.13
2018-10-09T03:25:59.408Z,41.83
2018-10-09T03:28:27.812Z,38.90
2018-10-09T03:30:56.032Z,38.63
2018-10-09T03:33:24.253Z,38.73
2018-10-09T03:35:52.452Z,43.93
2018-10-09T03:38:20.589Z,69.13
2018-10-09T03:40:48.748Z,44.43
2018-10-09T03:43:17.010Z,40.23
2018-10-09T03:45:45.265Z,42.57
2018-10-09T03:48:13.443Z,38.60
2018-10-09T03:50:41.873Z,38.77
2018-10-09T03:53:10.117Z,45.57
2018-10-09T03:55:38.360Z,39.27
2018-10-09T03:58:06.873Z,45.00
2018-10-09T04:00:35.037Z,42.10
2018-10-09T04:03:03.202Z,41.60
2018-10-09T04:05:31.389Z,41.87
2018-10-09T04:07:59.608Z,43.57
2018-10-09T04:10:27.831Z,39.40
2018-10-09T04:12:56.108Z,38.30
2018-10-09T04:15:24.273Z,39.70
2018-10-09T04:17:52.724Z,35.93
2018-10-09T04:20:20.952Z,39.30
2018-10-09T04:22:49.204Z,38.23
2018-10-09T04:25:17.445Z,41.10
2018-10-09T04:27:45.610Z,37.27
2018-10-09T04:30:13.834Z,44.23
2018-10-09T04:32:42.003Z,44.17
2018-10-09T04:35:10.218Z,37.90
2018-10-09T04:37:38.359Z,43.87
2018-10-09T04:40:06.634Z,43.07
2018-10-09T04:42:34.825Z,40.70
2018-10-09T04:45:03.088Z,38.50
2018-10-09T04:47:31.266Z,38.27
2018-10-09T04:49:59.561Z,38.20
2018-10-09T04:52:27.817Z,39.03
2018-10-09T04:54:55.973Z,40.07
2018-10-09T04:57:24.393Z,38.57
2018-10-09T04:59:52.558Z,39.00
2018-10-09T05:02:20.826Z,39.17
2018-10-09T05:04:49.005Z,44.80
2018-10-09T05:07:17.177Z,38.23
2018-10-09T05:09:45.451Z,37.00
2018-10-09T05:12:13.741Z,35.10
2018-10-09T05:14:41.984Z,38.27
2018-10-09T05:17:10.168Z,35.87
2018-10-09T05:19:38.457Z,37.13
2018-10-09T05:22:07.118Z,37.80
2018-10-09T05:24:35.296Z,37.00
2018-10-09T05:27:03.597Z,39.30
2018-10-09T05:29:31.801Z,36.03
2018-10-09T05:32:00.047Z,34.90
2018-10-09T05:34:28.258Z,37.03
2018-10-09T05:36:56.503Z,37.30
2018-10-09T05:39:24.756Z,37.70
2018-10-09T05:41:52.929Z,38.73
2018-10-09T05:44:21.168Z,36.87
2018-10-09T05:46:49.275Z,39.00
2018-10-09T05:49:17.478Z,38.53
2018-10-09T05:51:45.651Z,35.97
2018-10-09T05:54:13.932Z,39.57
2018-10-09T05:56:42.190Z,39.37
2018-10-09T05:59:10.368Z,39.03
2018-10-09T06:01:38.660Z,38.47
2018-10-09T06:04:06.926Z,37.47
2018-10-09T06:06:35.189Z,37.07
2018-10-09T06:09:03.747Z,38.20
2018-10-09T06:11:31.939Z,37.97
2018-10-09T06:14:00.115Z,40.83
2018-10-09T06:16:28.323Z,37.50
2018-10-09T06:18:56.489Z,40.57
2018-10-09T06:21:25.429Z,38.70
2018-10-09T06:23:53.585Z,39.43
2018-10-09T06:26:21.821Z,39.53
2018-10-09T06:28:50.101Z,38.93
2018-10-09T06:31:18.569Z,39.53
2018-10-09T06:33:47.043Z,43.87
2018-10-09T06:36:15.892Z,43.70
2018-10-09T06:38:44.078Z,40.83
2018-10-09T06:41:12.681Z,41.90
2018-10-09T06:43:40.881Z,39.47
2018-10-09T06:46:09.244Z,40.90
2018-10-09T06:48:38.441Z,39.90
2018-10-09T06:51:06.612Z,39.77
2018-10-09T06:53:34.831Z,40.00
2018-10-09T06:56:02.964Z,37.33
2018-10-09T06:58:31.208Z,39.37
2018-10-09T07:00:59.388Z,36.80
2018-10-09T07:03:27.577Z,39.10
2018-10-09T07:05:55.737Z,35.10
2018-10-09T07:08:23.906Z,38.67
2018-10-09T07:10:52.096Z,38.47
2018-10-09T07:13:20.329Z,36.47
2018-10-09T07:15:48.618Z,34.70
2018-10-09T07:18:16.841Z,34.03
2018-10-09T07:20:45.011Z,37.17
2018-10-09T07:23:13.189Z,33.90
2018-10-09T07:25:41.378Z,36.40
2018-10-09T07:28:09.576Z,36.43
2018-10-09T07:30:37.741Z,34.40
2018-10-09T07:33:05.919Z,35.17
2018-10-09T07:35:34.085Z,35.63
2018-10-09T07:38:02.274Z,35.60
2018-10-09T07:40:30.477Z,33.07
2018-10-09T07:42:58.679Z,33.93
2018-10-09T07:45:26.887Z,32.47
2018-10-09T07:47:55.161Z,31.70
2018-10-09T07:50:23.428Z,31.87
2018-10-09T07:52:51.707Z,32.93
2018-10-09T07:55:20.307Z,31.97
2018-10-09T07:57:48.477Z,32.40
2018-10-09T08:00:16.729Z,31.43
2018-10-09T08:02:44.924Z,31.50
2018-10-09T08:05:13.093Z,32.13
2018-10-09T08:07:41.250Z,31.67
2018-10-09T08:10:09.435Z,29.80
2018-10-09T08:12:37.725Z,31.43
2018-10-09T08:15:05.893Z,28.53
2018-10-09T08:17:34.074Z,29.47
2018-10-09T08:20:02.236Z,30.13
2018-10-09T08:22:30.430Z,29.53
2018-10-09T08:24:58.582Z,30.70
2018-10-09T08:27:26.752Z,29.43
2018-10-09T08:29:54.922Z,29.40
2018-10-09T08:32:23.241Z,28.00
2018-10-09T08:34:51.414Z,30.33
2018-10-09T08:37:19.605Z,29.77
2018-10-09T08:39:47.773Z,29.43
2018-10-09T08:42:16.045Z,31.50
2018-10-09T08:44:44.187Z,30.43
2018-10-09T08:47:12.661Z,29.67
2018-10-09T08:49:40.921Z,30.80
2018-10-09T08:52:09.182Z,28.73
2018-10-09T08:54:37.877Z,30.57
2018-10-09T08:57:06.049Z,30.30
2018-10-09T08:59:34.228Z,30.83
2018-10-09T09:02:02.697Z,32.70
2018-10-09T09:04:30.857Z,32.80
2018-10-09T09:06:59.404Z,31.05
2018-10-09T09:09:27.694Z,31.07
2018-10-09T09:11:55.833Z,30.73
2018-10-09T09:14:24.085Z,30.20
2018-10-09T09:16:53.522Z,31.10
2018-10-09T09:19:21.805Z,31.80
2018-10-09T09:21:50.039Z,34.80
2018-10-09T09:24:18.269Z,32.40
2018-10-09T09:26:47.135Z,33.67
2018-10-09T09:29:15.189Z,32.33
2018-10-09T09:31:43.682Z,31.50
2018-10-09T09:34:11.841Z,33.07
2018-10-09T09:36:40.022Z,31.10
2018-10-09T09:39:09.242Z,33.70
2018-10-09T09:41:37.618Z,33.47
2018-10-09T09:44:06.030Z,34.27
2018-10-09T09:46:34.261Z,32.07
2018-10-09T09:49:02.723Z,30.57
2018-10-09T09:51:30.965Z,31.70
2018-10-09T09:53:59.192Z,31.87
2018-10-09T09:56:27.348Z,30.73
2018-10-09T09:58:55.695Z,30.40
2018-10-09T10:01:29.081Z,30.47
2018-10-09T10:03:58.150Z,30.20
2018-10-09T10:06:26.708Z,28.70
2018-10-09T10:08:54.889Z,33.30
2018-10-09T10:11:23.153Z,37.70
2018-10-09T10:13:51.315Z,32.20
2018-10-09T10:16:19.833Z,30.37
2018-10-09T10:18:47.989Z,31.63
2018-10-09T10:21:16.368Z,29.97
2018-10-09T10:23:44.585Z,32.20
2018-10-09T10:26:12.730Z,30.93
2018-10-09T10:28:40.962Z,29.43
2018-10-09T10:31:09.281Z,30.23
2018-10-09T10:33:37.540Z,31.70
2018-10-09T10:36:05.817Z,27.57
2018-10-09T10:38:34.494Z,31.67
2018-10-09T10:41:02.673Z,29.07
2018-10-09T10:43:30.869Z,30.77
2018-10-09T10:45:59.061Z,24.57
2018-10-09T10:48:27.304Z,25.10
2018-10-09T10:50:55.692Z,23.77
2018-10-09T10:53:23.931Z,25.87
2018-10-09T10:55:52.380Z,27.40
2018-10-09T10:58:20.572Z,25.70
2018-10-09T11:00:48.794Z,26.93
2018-10-09T11:03:16.962Z,26.60
2018-10-09T11:05:45.141Z,27.03
2018-10-09T11:08:13.362Z,27.60
2018-10-09T11:10:41.534Z,37.27
2018-10-09T11:13:09.793Z,27.13
2018-10-09T11:15:38.006Z,26.70
2018-10-09T11:18:06.205Z,26.07
2018-10-09T11:20:34.482Z,25.13
2018-10-09T11:23:02.783Z,22.90
2018-10-09T11:25:30.961Z,23.77
2018-10-09T11:27:59.262Z,39.60
2018-10-09T11:30:27.440Z,26.73
2018-10-09T11:32:55.633Z,24.63
2018-10-09T11:35:23.856Z,24.67
2018-10-09T11:37:52.057Z,23.03
2018-10-09T11:40:20.356Z,22.10
2018-10-09T11:42:48.569Z,20.97
2018-10-09T11:45:16.776Z,21.57
2018-10-09T11:47:49.640Z,22.83
2018-10-09T11:50:20.394Z,22.03
2018-10-09T11:52:49.168Z,24.17
2018-10-09T11:55:17.446Z,23.40
2018-10-09T11:57:45.644Z,24.17
2018-10-09T12:00:13.877Z,25.20
2018-10-09T12:02:42.094Z,26.17
2018-10-09T12:05:10.296Z,23.70
2018-10-09T12:07:39.645Z,23.10
2018-10-09T12:10:07.915Z,23.00
2018-10-09T12:12:36.095Z,20.87
2018-10-09T12:15:04.402Z,20.70
2018-10-09T12:17:32.601Z,21.30
2018-10-09T12:20:00.797Z,21.77
2018-10-09T12:22:29.093Z,20.97
2018-10-09T12:24:57.361Z,19.77
2018-10-09T12:27:25.559Z,21.30
2018-10-09T12:29:53.809Z,22.77
2018-10-09T12:32:21.976Z,19.13
2018-10-09T12:34:50.194Z,22.20
2018-10-09T12:37:18.659Z,19.07
2018-10-09T12:39:46.927Z,21.90
2018-10-09T12:42:15.440Z,22.30
2018-10-09T12:44:44.662Z,20.80
2018-10-09T12:47:13.200Z,21.30
2018-10-09T12:49:41.398Z,20.17
2018-10-09T12:52:09.583Z,18.67
2018-10-09T12:54:38.071Z,22.00
2018-10-09T12:57:06.326Z,19.37
2018-10-09T12:59:34.475Z,18.00
2018-10-09T13:02:02.662Z,18.70
2018-10-09T13:04:30.867Z,18.73
2018-10-09T13:06:59.410Z,17.20
2018-10-09T13:09:27.705Z,18.87
2018-10-09T13:11:55.865Z,17.70
2018-10-09T13:14:25.417Z,16.93
2018-10-09T13:16:53.577Z,18.63
2018-10-09T13:19:22.729Z,19.87
2018-10-09T13:21:51.151Z,20.10
2018-10-09T13:24:19.077Z,18.30
2018-10-09T13:26:47.481Z,17.80
2018-10-09T13:29:15.719Z,17.57
2018-10-09T13:31:43.896Z,20.20
2018-10-09T13:34:12.327Z,18.77
2018-10-09T13:36:40.437Z,20.53
2018-10-09T13:39:09.089Z,20.43
2018-10-09T13:41:37.816Z,20.07
2018-10-09T13:44:06.418Z,21.90
2018-10-09T13:46:34.558Z,18.13
2018-10-09T13:49:03.012Z,20.00
2018-10-09T13:51:31.163Z,19.10
2018-10-09T13:53:59.409Z,17.33
2018-10-09T13:56:27.697Z,19.37
2018-10-09T13:58:55.885Z,20.37
2018-10-09T14:01:24.173Z,19.60
2018-10-09T14:03:52.444Z,19.87
2018-10-09T14:06:20.823Z,19.67
2018-10-09T14:08:51.133Z,21.00
2018-10-09T14:11:19.321Z,17.70
2018-10-09T14:13:47.568Z,17.40
2018-10-09T14:16:15.926Z,16.83
2018-10-09T14:18:44.072Z,19.10
2018-10-09T14:21:12.241Z,20.40
2018-10-09T14:23:40.402Z,17.03
2018-10-09T14:26:08.648Z,19.30
2018-10-09T14:28:36.821Z,18.20
2018-10-09T14:31:05.997Z,19.37
2018-10-09T14:33:34.293Z,16.30
2018-10-09T14:36:02.668Z,18.33
2018-10-09T14:38:30.829Z,19.83
2018-10-09T14:40:59.034Z,19.43
2018-10-09T14:43:27.202Z,19.23
2018-10-09T14:45:55.458Z,21.60
2018-10-09T14:48:23.662Z,22.03
2018-10-09T14:50:51.837Z,20.77
2018-10-09T14:53:20.098Z,19.97
2018-10-09T14:55:48.375Z,23.00
2018-10-09T14:58:16.572Z,20.27
2018-10-09T15:00:44.816Z,19.80
2018-10-09T15:03:13.042Z,22.67
2018-10-09T15:05:41.166Z,30.03
2018-10-09T15:08:09.338Z,19.77
2018-10-09T15:10:37.525Z,20.37
2018-10-09T15:13:05.744Z,18.50
2018-10-09T15:15:33.959Z,18.87
2018-10-09T15:18:02.133Z,17.93
2018-10-09T15:20:30.371Z,18.20
2018-10-09T15:22:58.581Z,18.93
2018-10-09T15:25:26.780Z,18.67
2018-10-09T15:27:54.939Z,17.87
2018-10-09T15:30:23.131Z,20.80
2018-10-09T15:32:51.313Z,18.73
2018-10-09T15:35:19.571Z,22.03
2018-10-09T15:37:48.061Z,21.43
2018-10-09T15:40:16.371Z,21.13
2018-10-09T15:42:44.605Z,19.13
2018-10-09T15:45:12.866Z,22.07
2018-10-09T15:47:41.053Z,59.87
2018-10-09T15:50:09.221Z,55.93
2018-10-09T15:52:37.459Z,34.50
2018-10-09T15:55:05.737Z,22.17
2018-10-09T15:57:33.950Z,27.60
2018-10-09T16:00:02.181Z,26.17
2018-10-09T16:02:30.453Z,24.53
2018-10-09T16:04:58.777Z,22.40
2018-10-09T16:07:26.947Z,20.47
2018-10-09T16:09:55.114Z,29.90
2018-10-09T16:12:23.549Z,20.93
2018-10-09T16:14:51.764Z,23.00
2018-10-09T16:17:20.007Z,30.80
2018-10-09T16:19:48.255Z,30.33
2018-10-09T16:22:16.455Z,44.90
2018-10-09T16:24:44.658Z,25.70
2018-10-09T16:27:12.854Z,24.13
2018-10-09T16:29:41.154Z,23.93
2018-10-09T16:32:09.389Z,33.90
2018-10-09T16:34:37.533Z,23.67
2018-10-09T16:37:05.745Z,23.10
2018-10-09T16:39:33.926Z,35.30
2018-10-09T16:42:02.165Z,30.47
2018-10-09T16:44:30.326Z,25.60
2018-10-09T16:46:58.558Z,25.33
2018-10-09T16:49:26.754Z,28.30
2018-10-09T16:51:54.930Z,30.20
2018-10-09T16:54:24.255Z,25.10
2018-10-09T16:56:52.527Z,26.43
2018-10-09T16:59:20.705Z,28.57
2018-10-09T17:01:49.149Z,65.63
2018-10-09T17:04:17.337Z,51.87
2018-10-09T17:06:45.589Z,52.83
2018-10-09T17:09:13.684Z,27.93
2018-10-09T17:11:42.385Z,22.97
2018-10-09T17:14:11.274Z,21.23
2018-10-09T17:16:39.462Z,27.67
2018-10-09T17:19:07.668Z,30.20
2018-10-09T17:21:35.842Z,20.50
2018-10-09T17:24:04.305Z,20.20
2018-10-09T17:26:32.471Z,19.87
2018-10-09T17:29:00.634Z,20.17
2018-10-09T17:31:28.927Z,20.50
2018-10-09T17:33:57.124Z,21.83
2018-10-09T17:36:25.302Z,20.30
2018-10-09T17:38:53.497Z,21.07
2018-10-09T17:41:21.724Z,20.73
2018-10-09T17:43:49.935Z,22.67
2018-10-09T17:46:18.353Z,22.47
2018-10-09T17:48:46.794Z,22.03
2018-10-09T17:51:14.905Z,21.90
2018-10-09T17:53:43.176Z,22.30
2018-10-09T17:56:11.287Z,23.33
2018-10-09T17:58:39.549Z,22.27
2018-10-09T18:01:07.787Z,24.93
2018-10-09T18:03:36.041Z,24.43
2018-10-09T18:06:04.249Z,25.40
2018-10-09T18:08:33.005Z,22.73
2018-10-09T18:11:01.229Z,24.73
2018-10-09T18:13:29.453Z,32.90
2018-10-09T18:15:58.287Z,38.13
2018-10-09T18:18:26.529Z,24.87
2018-10-09T18:20:54.723Z,25.70
2018-10-09T18:23:22.925Z,25.70
2018-10-09T18:25:51.121Z,25.93
2018-10-09T18:28:19.311Z,25.20
2018-10-09T18:30:47.608Z,26.63
2018-10-09T18:33:15.961Z,26.13
2018-10-09T18:35:44.820Z,26.03
2018-10-09T18:38:13.125Z,27.07
2018-10-09T18:40:41.401Z,26.17
2018-10-09T18:43:09.804Z,36.40
2018-10-09T18:45:38.046Z,28.70
2018-10-09T18:48:06.336Z,32.13
2018-10-09T18:50:34.555Z,28.50
2018-10-09T18:53:02.754Z,28.07
2018-10-09T18:55:30.997Z,26.30
2018-10-09T18:57:59.193Z,36.07
2018-10-09T19:00:27.733Z,62.60
2018-10-09T19:02:55.951Z,33.30
2018-10-09T19:05:24.141Z,30.40
2018-10-09T19:07:52.341Z,31.17
2018-10-09T19:10:20.607Z,27.20
2018-10-09T19:12:48.854Z,35.10
2018-10-09T19:15:17.063Z,30.93
2018-10-09T19:17:45.378Z,30.47
2018-10-09T19:20:13.931Z,31.90
2018-10-09T19:22:42.171Z,30.30
2018-10-09T19:25:10.421Z,30.07
2018-10-09T19:27:38.638Z,28.20
2018-10-09T19:30:07.542Z,29.07
2018-10-09T19:32:35.822Z,27.60
2018-10-09T19:35:03.948Z,28.57
2018-10-09T19:37:32.319Z,28.30
2018-10-09T19:40:00.538Z,28.00
2018-10-09T19:42:28.760Z,32.27
2018-10-09T19:44:56.962Z,71.10
2018-10-09T19:47:25.144Z,32.20
2018-10-09T19:49:53.450Z,29.40
2018-10-09T19:52:21.706Z,29.27
2018-10-09T19:54:49.908Z,32.57
2018-10-09T19:57:19.145Z,31.47
2018-10-09T19:59:47.361Z,30.83
2018-10-09T20:02:15.651Z,30.17
2018-10-09T20:04:43.845Z,30.27
2018-10-09T20:07:12.353Z,29.87
2018-10-09T20:09:40.769Z,44.73
2018-10-09T20:12:08.957Z,33.63
2018-10-09T20:14:37.279Z,29.97
2018-10-09T20:17:05.773Z,33.67
2018-10-09T20:19:33.984Z,33.43
2018-10-09T20:22:02.173Z,31.27
2018-10-09T20:24:31.317Z,32.77
2018-10-09T20:26:59.587Z,32.73
2018-10-09T20:29:27.819Z,30.00
2018-10-09T20:31:56.019Z,31.67
2018-10-09T20:34:24.836Z,30.33
2018-10-09T20:36:53.045Z,29.00
2018-10-09T20:39:21.474Z,29.97
2018-10-09T20:41:49.687Z,28.43
2018-10-09T20:44:17.848Z,28.40
2018-10-09T20:46:46.047Z,29.47
2018-10-09T20:49:14.248Z,29.90
2018-10-09T20:51:42.438Z,29.07
2018-10-09T20:54:10.633Z,26.30
2018-10-09T20:56:38.820Z,28.27
2018-10-09T20:59:07.964Z,28.77
2018-10-09T21:01:36.522Z,26.60
2018-10-09T21:04:04.814Z,29.13
2018-10-09T21:06:33.282Z,29.40
2018-10-09T21:09:02.122Z,28.17
2018-10-09T21:11:30.323Z,27.07
2018-10-09T21:13:58.500Z,30.90
2018-10-09T21:16:26.690Z,40.70
2018-10-09T21:18:54.915Z,31.83
2018-10-09T21:21:23.173Z,29.23
2018-10-09T21:23:51.516Z,29.40
2018-10-09T21:26:19.793Z,28.60
2018-10-09T21:28:48.003Z,27.83
2018-10-09T21:31:16.173Z,28.93
2018-10-09T21:33:44.392Z,28.90
2018-10-09T21:36:12.613Z,29.10
2018-10-09T21:38:40.825Z,28.73
2018-10-09T21:41:09.057Z,30.87
2018-10-09T21:43:37.357Z,30.20
2018-10-09T21:46:05.521Z,31.23
2018-10-09T21:48:33.750Z,32.17
2018-10-09T21:51:01.972Z,31.17
2018-10-09T21:53:30.128Z,28.87
2018-10-09T21:55:58.344Z,27.43
2018-10-09T21:58:26.518Z,32.93
2018-10-09T22:01:00.270Z,31.90
2018-10-09T22:03:28.458Z,32.13
2018-10-09T22:05:57.334Z,31.03
2018-10-09T22:08:25.492Z,32.50
2018-10-09T22:10:53.737Z,36.80
2018-10-09T22:13:21.919Z,42.30
2018-10-09T22:15:50.090Z,33.00
2018-10-09T22:18:18.265Z,32.50
2018-10-09T22:20:46.473Z,32.57
2018-10-09T22:23:14.641Z,32.77
2018-10-09T22:25:43.083Z,31.97
2018-10-09T22:28:11.301Z,31.20
2018-10-09T22:30:39.473Z,30.30
2018-10-09T22:33:08.025Z,31.47
2018-10-09T22:35:36.292Z,29.67
2018-10-09T22:38:04.535Z,32.37
2018-10-09T22:40:32.786Z,30.20
2018-10-09T22:43:00.950Z,31.67
2018-10-09T22:45:29.220Z,30.67
2018-10-09T22:47:57.472Z,29.17
2018-10-09T22:50:25.642Z,32.00
2018-10-09T22:52:53.865Z,29.73
2018-10-09T22:55:22.068Z,29.40
2018-10-09T22:57:50.264Z,29.83
2018-10-09T23:00:18.432Z,29.90
2018-10-09T23:02:46.665Z,28.70
2018-10-09T23:05:14.929Z,27.13
2018-10-09T23:07:43.091Z,28.50
2018-10-09T23:10:11.277Z,30.50
2018-10-09T23:12:39.585Z,30.60
2018-10-09T23:15:08.267Z,31.70
2018-10-09T23:17:36.481Z,31.50
2018-10-09T23:20:04.929Z,30.20
2018-10-09T23:22:33.161Z,29.20
2018-10-09T23:25:01.355Z,29.83
2018-10-09T23:27:29.645Z,29.20
2018-10-09T23:29:57.823Z,27.97
2018-10-09T23:32:26.052Z,29.20
2018-10-09T23:34:54.262Z,29.50
2018-10-09T23:37:23.565Z,28.27
2018-10-09T23:39:52.756Z,34.63
2018-10-09T23:42:21.290Z,29.83
2018-10-09T23:44:50.156Z,29.27
2018-10-09T23:47:19.046Z,30.40
2018-10-09T23:49:47.642Z,31.30
2018-10-09T23:52:16.318Z,33.73
2018-10-09T23:54:45.568Z,30.63
2018-10-09T23:57:15.051Z,29.27
2018-10-09T23:59:44.288Z,31.00
